Latest Weather Observations for Hopetoun North

IDW60801

Issued at 11:02 am WST Tuesday 30 June 2015 (issued every 30 minutes, with the page automatically refreshed every 10 minutes)

About weather observations | Map of weather stations | Latest weather observations for WA | Other Formats
Station Details ID: 009961 Name: HOPETOUN NORTH Lat: -33.93 Lon: 120.13 Height: 26.0 m
Data from the previous 72 hours. | See also: Recent months at Hopetoun North
Date/Time
WST
Temp
°C
App
Temp
°C
Dew
Point
Rel
Hum
%
Delta-T
°C
Wind Press
QNH
hPa
Press
MSL
hPa
Rain
since 9 am
mm
Dir
 
Spd
km/h
Gust
km/h
Spd
kts
Gust
kts
30/11:00am 18.9 13.8 3.1 35 7.3 NNW 19 28 10 15 1024.4 1024.4 0.0
30/10:30am 17.3 12.3 3.6 40 6.3 NNW 19 26 10 14 1024.8 1024.8 0.0
30/10:00am 16.2 10.1 2.9 41 6.0 N 24 35 13 19 1024.9 1024.9 0.0
30/09:30am 15.3 9.2 2.8 43 5.6 NNW 24 35 13 19 1025.2 1025.2 0.0
30/09:00am 13.8 8.7 3.0 48 4.8 NNW 19 32 10 17 1025.2 1025.2 0.0
30/08:30am 13.1 7.7 2.6 49 4.6 NNW 20 30 11 16 1025.0 1025.0 0.0
30/08:00am 11.3 6.6 2.9 56 3.6 NNW 17 24 9 13 1025.1 1025.1 0.0
30/07:30am 10.3 6.3 2.7 59 3.2 NNW 13 17 7 9 1025.0 1025.0 0.0
30/07:00am 9.9 5.9 2.7 61 3.1 NNW 13 20 7 11 1024.6 1024.6 0.0
30/06:30am 9.8 5.4 2.6 61 3.1 NNW 15 20 8 11 1024.2 1024.2 0.0
30/06:00am 10.1 5.3 2.7 60 3.2 NNW 17 22 9 12 1024.0 1024.0 0.0
30/05:30am 10.4 5.6 2.7 59 3.3 NNW 17 22 9 12 1023.9 1023.9 0.0
30/05:00am 10.3 5.9 2.9 60 3.2 NNW 15 19 8 10 1023.6 1023.6 0.0
30/04:30am 10.4 6.1 3.0 60 3.2 N 15 24 8 13 1023.7 1023.7 0.0
30/04:00am 10.2 6.6 3.0 61 3.1 N 11 17 6 9 1023.9 1023.9 0.0
30/03:30am 10.3 7.1 3.3 62 3.0 N 9 15 5 8 1024.0 1024.0 0.0
30/03:00am 9.6 6.1 3.6 66 2.6 N 11 15 6 8 1024.0 1024.0 0.0
30/02:30am 8.5 5.7 3.1 69 2.3 NNE 7 11 4 6 1023.8 1023.8 0.0
30/02:00am 8.4 5.6 3.3 70 2.2 NNE 7 13 4 7 1024.1 1024.1 0.0
30/01:30am 10.2 6.7 3.5 63 2.9 N 11 17 6 9 1024.1 1024.1 0.0
30/01:00am 10.8 6.9 3.6 61 3.2 N 13 20 7 11 1024.2 1024.2 0.0
30/12:30am 11.4 7.2 3.7 59 3.4 N 15 19 8 10 1024.5 1024.5 0.0
30/12:00am 11.4 8.0 3.9 60 3.3 N 11 17 6 9 1024.4 1024.4 0.0
 
Date/Time
WST
Temp
°C
App
Temp
°C
Dew
Point
Rel
Hum
%
Delta-T
°C
Wind Press
QNH
hPa
Press
MSL
hPa
Rain
since 9 am
mm
Dir
 
Spd
km/h
Gust
km/h
Spd
kts
Gust
kts
29/11:30pm 11.6 8.2 4.1 60 3.4 N 11 17 6 9 1024.8 1024.8 0.0
29/11:00pm 9.8 7.8 4.6 70 2.3 NNE 4 6 2 3 1024.8 1024.8 0.0
29/10:30pm 11.1 8.8 4.8 65 2.9 N 6 9 3 5 1024.8 1024.8 0.0
29/10:00pm 10.9 8.7 5.2 68 2.6 NNE 6 9 3 5 1024.8 1024.8 0.0
29/09:30pm 9.6 6.9 5.4 75 1.9 NNE 9 13 5 7 1025.0 1025.0 0.0
29/09:00pm 9.5 6.4 5.7 77 1.7 NE 11 17 6 9 1024.9 1024.9 0.0
29/08:30pm 9.6 6.5 5.4 75 1.9 NE 11 15 6 8 1025.2 1025.2 0.0
29/08:00pm 11.5 9.3 5.4 66 2.8 N 6 7 3 4 1025.1 1025.1 0.0
29/07:30pm 12.1 10.0 5.7 65 3.0 N 6 7 3 4 1025.1 1025.1 0.0
29/07:00pm 12.9 10.8 5.6 61 3.4 N 6 7 3 4 1025.0 1025.0 0.0
29/06:30pm 12.6 10.3 5.8 63 3.2 NNE 7 9 4 5 1025.0 1025.0 0.0
29/06:00pm 13.8 11.8 6.2 60 3.6 N 6 9 3 5 1024.9 1024.9 0.0
29/05:30pm 14.4 12.3 6.5 59 3.8 N 7 9 4 5 1024.6 1024.6 0.0
29/05:00pm 15.8 14.0 7.1 56 4.3 N 6 9 3 5 1024.5 1024.5 0.0
29/04:30pm 18.1 16.1 6.9 48 5.6 N 7 9 4 5 1024.4 1024.4 0.0
29/04:00pm 20.0 17.8 6.0 40 6.9 N 7 13 4 7 1024.3 1024.3 0.0
29/03:30pm 20.2 16.5 4.7 36 7.5 N 13 19 7 10 1024.4 1024.4 0.0
29/03:00pm 20.4 17.0 4.0 34 7.8 N 11 17 6 9 1024.5 1024.5 0.0
29/02:30pm 20.4 16.5 3.6 33 8.0 NNW 13 20 7 11 1024.6 1024.6 0.0
29/02:00pm 20.3 16.6 4.4 35 7.6 NNW 13 20 7 11 1024.9 1024.9 0.0
29/01:30pm 20.1 16.0 4.2 35 7.6 NNW 15 24 8 13 1024.9 1024.9 0.0
29/01:00pm 20.6 17.1 5.4 37 7.5 NNW 13 20 7 11 1025.2 1025.2 0.0
29/12:30pm 17.9 12.8 3.0 37 6.9 N 19 24 10 13 1025.7 1025.7 0.0
29/12:00pm 16.5 11.2 1.8 37 6.5 N 19 28 10 15 1026.4 1026.4 0.0
29/11:30am 16.1 9.8 1.8 38 6.3 N 24 35 13 19 1026.8 1026.8 0.0
29/11:00am 16.0 10.6 2.4 40 6.1 N 20 30 11 16 1027.2 1027.2 0.0
29/10:30am 15.2 10.4 2.7 43 5.6 N 17 30 9 16 1027.7 1027.7 0.0
29/10:00am 14.2 11.1 5.6 56 4.0 N 11 17 6 9 1027.8 1027.8 0.0
29/09:30am 12.6 8.7 5.5 62 3.3 N 15 20 8 11 1028.1 1028.1 0.0
29/09:00am 10.8 6.8 4.9 67 2.7 N 15 20 8 11 1028.1 1028.1 0.2
29/08:30am 9.4 5.4 4.8 73 2.1 N 15 20 8 11 1028.0 1028.0 0.2
29/08:00am 8.1 5.3 5.2 82 1.3 N 9 13 5 7 1027.9 1027.9 0.2
29/07:30am 6.5 3.2 4.5 87 0.9 NNE 11 15 6 8 1027.6 1027.6 0.2
29/07:00am 6.2 2.9 4.4 88 0.8 NNE 11 13 6 7 1027.5 1027.5 0.2
29/06:30am 7.0 3.3 4.7 85 1.0 N 13 17 7 9 1027.5 1027.5 0.2
29/06:00am 6.9 2.5 4.7 86 1.0 N 17 20 9 11 1027.5 1027.5 0.2
29/05:30am 6.7 2.7 5.0 89 0.7 N 15 20 8 11 1027.5 1027.5 0.2
29/05:00am 6.4 2.8 5.0 91 0.6 N 13 17 7 9 1027.5 1027.5 0.2
29/04:30am 6.4 2.8 5.0 91 0.6 NNE 13 15 7 8 1027.5 1027.5 0.2
29/04:00am 6.9 3.4 5.5 91 0.6 NNE 13 19 7 10 1027.7 1027.7 0.2
29/03:30am 7.4 3.6 5.9 90 0.7 NNE 15 19 8 10 1027.7 1027.7 0.2
29/03:00am 6.8 3.9 6.5 98 0.1 N 11 17 6 9 1028.1 1028.1 0.2
29/02:30am 6.0 3.7 5.7 98 0.1 N 7 9 4 5 1028.3 1028.3 0.2
29/02:00am 5.7 3.3 5.4 98 0.1 NNE 7 9 4 5 1028.3 1028.3 0.2
29/01:30am 6.0 3.6 5.4 96 0.3 NNE 7 9 4 5 1028.5 1028.5 0.2
29/01:00am 6.8 4.3 6.4 97 0.2 NNE 9 15 5 8 1028.2 1028.2 0.2
29/12:30am 6.7 4.5 6.0 95 0.3 NNE 7 9 4 5 1028.5 1028.5 0.2
29/12:00am 7.6 5.1 6.7 94 0.4 NNE 9 11 5 6 1029.0 1029.0 0.2
 
Date/Time
WST
Temp
°C
App
Temp
°C
Dew
Point
Rel
Hum
%
Delta-T
°C
Wind Press
QNH
hPa
Press
MSL
hPa
Rain
since 9 am
mm
Dir
 
Spd
km/h
Gust
km/h
Spd
kts
Gust
kts
28/11:30pm 8.1 5.7 6.9 92 0.6 NNE 9 11 5 6 1029.2 1029.2 0.2
28/11:00pm 8.6 6.7 7.4 92 0.6 NNE 7 13 4 7 1029.7 1029.7 0.2
28/10:30pm 8.5 6.7 7.1 91 0.7 NNE 6 7 3 4 1029.9 1029.9 0.2
28/10:00pm 8.6 6.6 7.1 90 0.7 NNE 7 11 4 6 1030.0 1030.0 0.2
28/09:30pm 8.7 6.7 7.0 89 0.8 NNE 7 9 4 5 1029.9 1029.9 0.2
28/09:00pm 8.8 6.3 6.6 86 1.0 NE 9 11 5 6 1029.8 1029.8 0.2
28/08:30pm 9.5 6.3 6.8 83 1.3 NE 13 17 7 9 1030.1 1030.1 0.2
28/08:00pm 9.5 7.0 6.4 81 1.4 NE 9 11 5 6 1030.1 1030.1 0.2
28/07:30pm 8.6 6.4 6.1 84 1.1 NE 7 9 4 5 1030.1 1030.1 0.2
28/07:00pm 9.1 6.4 5.8 80 1.5 NE 9 9 5 5 1030.0 1030.0 0.2
28/06:30pm 12.8 10.1 7.5 70 2.6 E 11 13 6 7 1029.6 1029.6 0.2
28/06:00pm 10.9 7.6 4.8 66 2.7 E 11 17 6 9 1029.3 1029.3 0.2
28/05:30pm 10.7 7.6 5.5 70 2.4 E 11 13 6 7 1029.3 1029.3 0.2
28/05:00pm 11.4 8.7 5.7 68 2.6 E 9 13 5 7 1029.3 1029.3 0.2
28/04:30pm 12.8 10.2 6.2 64 3.1 E 9 13 5 7 1029.3 1029.3 0.2
28/04:00pm 13.3 9.8 5.5 59 3.6 ENE 13 19 7 10 1029.3 1029.3 0.2
28/03:30pm 14.3 9.7 3.5 48 4.9 NE 17 22 9 12 1029.5 1029.5 0.2
28/03:00pm 14.6 10.7 5.4 54 4.3 ENE 15 24 8 13 1029.6 1029.6 0.2
28/02:30pm 16.7 13.4 7.9 56 4.4 ENE 15 22 8 12 1029.5 1029.5 0.2
28/02:00pm 17.2 13.5 7.8 54 4.7 NE 17 24 9 13 1029.6 1029.6 0.2
28/01:30pm 14.4 10.3 6.3 58 3.9 NE 17 24 9 13 1029.9 1029.9 0.2
28/01:00pm 13.7 10.1 6.6 62 3.4 NE 15 24 8 13 1030.3 1030.3 0.2
28/12:30pm 13.4 9.5 7.0 65 3.1 NE 17 26 9 14 1030.7 1030.7 0.0
28/12:00pm 13.3 9.9 7.7 69 2.7 NNE 15 22 8 12 1031.2 1031.2 0.0
28/11:30am 13.2 9.6 8.5 73 2.3 NE 17 22 9 12 1031.8 1031.8 0.0
28/11:00am 12.7 8.7 8.2 74 2.2 NE 19 28 10 15 1032.1 1032.1 0.0
28/10:30am 12.1 8.0 8.0 76 2.0 NE 19 28 10 15 1032.5 1032.5 0.0
28/10:00am 12.1 7.9 8.2 77 1.9 NE 20 26 11 14 1032.8 1032.8 0.0
28/09:30am 11.7 8.9 8.4 80 1.6 NNE 13 17 7 9 1033.0 1033.0 0.0
28/09:00am 9.8 6.7 7.2 84 1.2 NNE 13 17 7 9 1033.0 1033.0 0.0
28/08:30am 8.8 6.4 6.8 87 0.9 NNE 9 13 5 7 1033.2 1033.2 0.0
28/08:00am 7.4 5.3 6.5 94 0.4 NNE 7 9 4 5 1033.1 1033.1 0.0
28/07:30am 6.0 3.7 5.7 98 0.1 NNE 7 9 4 5 1033.0 1033.0 0.0
28/07:00am 6.0 3.3 5.6 97 0.2 NNE 9 9 5 5 1032.8 1032.8 0.0
28/06:30am 6.3 3.7 5.9 97 0.2 NNE 9 11 5 6 1032.6 1032.6 0.0
28/06:00am 6.6 4.0 6.0 96 0.3 NNE 9 11 5 6 1032.5 1032.5 0.0
28/05:30am 7.0 4.4 6.1 94 0.4 NNE 9 11 5 6 1032.4 1032.4 0.0
28/05:00am 7.6 5.4 6.2 91 0.6 NNE 7 9 4 5 1032.3 1032.3 0.0
28/04:30am 7.7 5.5 6.2 90 0.7 NNE 7 11 4 6 1032.2 1032.2 0.0
28/04:00am 8.0 6.1 6.5 90 0.7 N 6 9 3 5 1032.3 1032.3 0.0
28/03:30am 8.4 6.3 6.7 89 0.8 N 7 9 4 5 1032.5 1032.5 0.0
28/03:00am 8.7 6.6 6.8 88 0.9 NNE 7 13 4 7 1032.4 1032.4 0.0
28/02:30am 8.3 5.9 7.1 92 0.6 NNE 9 9 5 5 1032.4 1032.4 0.0
28/02:00am 8.1 6.1 6.9 92 0.6 NNE 7 9 4 5 1032.5 1032.5 0.0
28/01:30am 7.7 5.6 6.6 93 0.5 NNE 7 7 4 4 1032.4 1032.4 0.0
28/01:00am 7.7 5.6 6.5 92 0.5 NNE 7 9 4 5 1032.5 1032.5 0.0
28/12:30am 8.0 5.9 6.5 90 0.7 NNE 7 9 4 5 1032.4 1032.4 0.0
28/12:00am 8.2 6.1 6.7 90 0.7 NNE 7 9 4 5 1032.7 1032.7 0.0
 
Date/Time
WST
Temp
°C
App
Temp
°C
Dew
Point
Rel
Hum
%
Delta-T
°C
Wind Press
QNH
hPa
Press
MSL
hPa
Rain
since 9 am
mm
Dir
 
Spd
km/h
Gust
km/h
Spd
kts
Gust
kts
27/11:30pm 8.7 6.6 6.7 87 0.9 NNE 7 9 4 5 1032.9 1032.9 0.0
27/11:00pm 8.7 6.5 6.2 84 1.1 NE 7 11 4 6 1033.1 1033.1 0.0
27/10:30pm 9.7 7.5 6.2 79 1.6 E 7 9 4 5 1033.0 1033.0 0.0
27/10:00pm 10.3 7.4 6.3 76 1.8 E 11 13 6 7 1032.9 1032.9 0.0
27/09:30pm 10.6 7.7 6.4 75 2.0 E 11 13 6 7 1033.0 1033.0 0.0
27/09:00pm 10.3 7.8 6.5 77 1.8 E 9 11 5 6 1033.1 1033.1 0.0
27/08:30pm 9.7 7.7 6.2 79 1.6 ENE 6 7 3 4 1033.1 1033.1 0.0
27/08:00pm 10.6 8.4 6.4 75 1.9 E 7 11 4 6 1033.2 1033.2 0.0
27/07:30pm 10.6 9.4 6.4 75 2.0 E 2 7 1 4 1033.1 1033.1 0.0
27/07:00pm 11.6 8.2 5.9 68 2.6 SE 13 17 7 9 1032.8 1032.8 0.0
27/06:30pm 11.8 8.5 6.3 69 2.6 ESE 13 19 7 10 1032.7 1032.7 0.0
27/06:00pm 11.7 8.8 6.4 70 2.5 ESE 11 19 6 10 1032.5 1032.5 0.0
27/05:30pm 11.9 8.9 6.2 68 2.7 ESE 11 15 6 8 1032.3 1032.3 0.0
27/05:00pm 11.7 9.1 6.2 69 2.6 ESE 9 13 5 7 1032.2 1032.2 0.0
27/04:30pm 11.9 9.0 6.4 69 2.6 SE 11 17 6 9 1032.0 1032.0 0.0
27/04:00pm 12.5 9.6 6.3 66 2.9 ESE 11 15 6 8 1032.0 1032.0 0.0
27/03:30pm 12.9 10.0 6.7 66 3.0 ESE 11 17 6 9 1031.9 1031.9 0.0
27/03:00pm 13.0 10.0 6.1 63 3.2 SE 11 15 6 8 1031.8 1031.8 0.0
27/02:30pm 13.3 10.4 6.6 64 3.2 ESE 11 15 6 8 1031.7 1031.7 0.0
27/02:00pm 13.4 10.8 6.3 62 3.4 SE 9 11 5 6 1031.8 1031.8 0.0
27/01:30pm 13.4 10.8 6.3 62 3.4 E 9 13 5 7 1032.1 1032.1 0.0
27/01:00pm 13.8 11.3 6.7 62 3.4 SE 9 15 5 8 1032.3 1032.3 0.0
27/12:30pm 13.4 10.9 6.5 63 3.3 SE 9 13 5 7 1032.5 1032.5 0.0
27/12:00pm 13.2 10.6 6.3 63 3.3 SSE 9 13 5 7 1032.8 1032.8 0.0
27/11:30am 13.4 10.9 6.7 64 3.2 SE 9 15 5 8 1033.0 1033.0 0.0

Other Formats:

Comma delimited format used in spreadsheet applications
http://www.bom.gov.au/fwo/IDW60801/IDW60801.95635.axf

JavaScript Object Notation format (JSON) in row-major order
http://www.bom.gov.au/fwo/IDW60801/IDW60801.95635.json